Time;durP1;ratioP1;P1;durP2;ratioP2;P2;SDS_P1;SDS_P2;PMS_P1;PMS_P2;Temp;Humidity;BMP_temperature;BMP_pressure;BME280_temperature;BME280_humidity;BME280_pressure;Samples;Min_cycle;Max_cycle;Signal;HPM_P1;HPM_P2
2023/06/30 00:01:22;;;;;;;7.78;1.45;;;14.90;99.90;;;;;;5051523;28;20169;-80
2023/06/30 00:03:47;;;;;;;6.97;1.45;;;15.00;99.90;;;;;;5044074;28;20170;-81
2023/06/30 00:06:14;;;;;;;5.32;1.50;;;14.90;99.90;;;;;;5031553;28;20506;-79
2023/06/30 00:08:39;;;;;;;6.07;1.65;;;14.80;99.90;;;;;;5031187;28;20226;-79
2023/06/30 00:11:05;;;;;;;5.22;1.60;;;14.80;99.90;;;;;;5031180;28;20528;-78
2023/06/30 00:13:30;;;;;;;6.97;2.15;;;14.80;99.90;;;;;;5031263;28;20189;-78
2023/06/30 00:15:56;;;;;;;10.88;1.80;;;14.80;1.00;;;;;;5030941;28;20177;-78
2023/06/30 00:18:22;;;;;;;10.20;1.85;;;14.80;99.90;;;;;;5030913;28;20264;-78
2023/06/30 00:20:47;;;;;;;7.03;1.88;;;14.70;99.90;;;;;;5030908;28;20170;-77
2023/06/30 00:23:13;;;;;;;4.70;1.80;;;14.80;99.90;;;;;;5030766;28;20261;-78
2023/06/30 00:25:39;;;;;;;4.70;1.73;;;14.70;99.90;;;;;;5031170;28;20296;-79
2023/06/30 00:28:05;;;;;;;9.70;1.90;;;14.80;99.90;;;;;;5030813;28;20710;-80
2023/06/30 00:30:30;;;;;;;3.80;1.60;;;14.70;99.90;;;;;;5031179;28;20271;-80
2023/06/30 00:32:56;;;;;;;4.28;1.80;;;14.70;99.90;;;;;;5031132;28;20170;-80
2023/06/30 00:35:22;;;;;;;6.97;2.22;;;14.60;99.90;;;;;;5030943;28;20189;-80
2023/06/30 00:37:47;;;;;;;6.18;2.10;;;14.60;99.90;;;;;;5013150;28;20173;-77
2023/06/30 00:40:16;;;;;;;8.80;2.13;;;14.60;99.90;;;;;;5032757;28;20177;-78
2023/06/30 00:42:41;;;;;;;8.38;2.08;;;14.60;99.90;;;;;;5043343;28;20199;-78
2023/06/30 00:45:07;;;;;;;5.93;2.00;;;14.60;99.90;;;;;;5054723;28;20176;-79
2023/06/30 00:47:33;;;;;;;4.60;2.05;;;14.60;99.90;;;;;;5054191;28;20262;-75
2023/06/30 00:49:59;;;;;;;5.50;2.00;;;14.50;99.90;;;;;;5041972;28;20695;-68
2023/06/30 00:52:25;;;;;;;9.70;2.20;;;14.50;99.90;;;;;;5053254;28;20219;-78
2023/06/30 00:54:51;;;;;;;8.55;2.17;;;14.50;99.90;;;;;;5054440;28;20227;-70
2023/06/30 00:57:16;;;;;;;6.93;2.30;;;14.50;99.90;;;;;;5052554;28;20667;-69
2023/06/30 00:59:42;;;;;;;7.80;2.40;;;14.50;99.90;;;;;;5050884;28;20177;-69
2023/06/30 01:02:18;;;;;;;5.55;2.13;;;14.50;99.90;;;;;;5054370;28;20706;-69
2023/06/30 01:05:06;;;;;;;7.35;2.13;;;14.50;99.90;;;;;;5040952;28;20182;-70
2023/06/30 01:07:40;;;;;;;7.50;2.20;;;14.50;99.90;;;;;;5034027;28;20193;-69
2023/06/30 01:10:05;;;;;;;5.40;2.03;;;14.70;99.90;;;;;;5034007;28;20216;-69
2023/06/30 01:12:32;;;;;;;11.05;1.92;;;14.40;99.90;;;;;;5051807;28;20658;-69
2023/06/30 01:14:59;;;;;;;10.38;3.50;;;14.50;99.90;;;;;;5054149;28;20177;-69
2023/06/30 01:17:26;;;;;;;10.95;4.28;;;14.40;99.90;;;;;;5036139;28;20729;-70
2023/06/30 01:19:55;;;;;;;8.32;2.80;;;14.50;99.90;;;;;;5054081;28;20197;-70
2023/06/30 01:22:39;;;;;;;13.52;2.58;;;14.50;99.90;;;;;;5035557;28;20233;-69
2023/06/30 01:25:16;;;;;;;7.88;2.20;;;14.50;99.90;;;;;;5054102;28;20177;-69
2023/06/30 01:27:42;;;;;;;8.70;2.75;;;14.60;99.90;;;;;;5054003;28;20173;-70
2023/06/30 01:30:09;;;;;;;10.80;2.10;;;14.70;99.90;;;;;;5053592;28;20225;-70
2023/06/30 01:32:35;;;;;;;7.93;1.98;;;14.70;99.90;;;;;;5053810;28;20669;-70
2023/06/30 01:35:00;;;;;;;9.90;2.40;;;14.60;99.90;;;;;;5053722;28;20267;-70
2023/06/30 01:37:26;;;;;;;6.97;2.10;;;14.60;99.90;;;;;;5053551;28;20174;-70
2023/06/30 01:39:52;;;;;;;10.13;2.35;;;14.50;99.90;;;;;;5053812;28;20191;-70
2023/06/30 01:42:18;;;;;;;9.18;2.05;;;14.50;99.90;;;;;;5053750;28;20705;-70
2023/06/30 01:44:45;;;;;;;11.20;2.00;;;14.40;99.90;;;;;;5053651;28;20173;-70
2023/06/30 01:47:11;;;;;;;6.85;2.05;;;14.40;99.90;;;;;;5050811;28;20299;-69
2023/06/30 01:49:38;;;;;;;12.00;2.47;;;14.40;99.90;;;;;;5033655;28;20214;-66
2023/06/30 01:52:04;;;;;;;12.82;2.30;;;14.40;99.90;;;;;;5032997;28;20173;-66
2023/06/30 01:54:29;;;;;;;7.40;2.35;;;14.50;99.90;;;;;;5033402;28;20174;-66
2023/06/30 01:56:55;;;;;;;8.55;1.80;;;14.60;99.90;;;;;;5033383;28;20561;-65
2023/06/30 01:59:21;;;;;;;11.55;1.80;;;14.60;99.90;;;;;;5033402;28;20656;-65
2023/06/30 02:01:47;;;;;;;8.93;1.98;;;14.70;99.90;;;;;;5033155;28;20172;-65
2023/06/30 02:04:12;;;;;;;6.90;1.95;;;14.70;99.90;;;;;;5033235;28;20174;-66
2023/06/30 02:06:38;;;;;;;6.78;1.90;;;14.70;99.90;;;;;;5033030;28;20182;-66
2023/06/30 02:09:04;;;;;;;12.07;1.67;;;14.70;99.90;;;;;;5032251;28;20245;-66
2023/06/30 02:11:30;;;;;;;6.65;1.73;;;14.80;99.90;;;;;;5032217;28;20216;-68
2023/06/30 02:13:55;;;;;;;7.55;2.17;;;14.80;99.90;;;;;;5032283;28;20216;-67
2023/06/30 02:16:21;;;;;;;10.18;1.95;;;14.90;99.90;;;;;;5032386;28;20266;-68
2023/06/30 02:18:46;;;;;;;7.68;2.10;;;14.90;99.90;;;;;;5032125;28;20196;-68
2023/06/30 02:21:12;;;;;;;10.13;1.92;;;15.00;99.90;;;;;;5032580;28;20174;-68
2023/06/30 02:23:37;;;;;;;10.93;2.50;;;15.00;99.90;;;;;;5014294;28;20620;-66
2023/06/30 02:26:03;;;;;;;8.10;1.70;;;15.10;99.90;;;;;;5032384;28;20177;-67
2023/06/30 02:28:29;;;;;;;7.82;1.80;;;15.10;99.90;;;;;;5032025;28;20560;-68
2023/06/30 02:30:55;;;;;;;7.50;1.85;;;15.00;99.90;;;;;;5032186;28;20166;-68
2023/06/30 02:33:21;;;;;;;6.65;2.08;;;15.00;99.90;;;;;;5031910;28;20177;-67
2023/06/30 02:35:46;;;;;;;8.50;1.90;;;15.00;99.90;;;;;;5032581;28;20177;-67
2023/06/30 02:38:12;;;;;;;4.97;1.70;;;15.10;99.90;;;;;;5014574;28;20703;-68
2023/06/30 02:40:38;;;;;;;7.72;1.70;;;15.10;99.90;;;;;;5042974;28;20307;-68
2023/06/30 02:43:04;;;;;;;7.47;2.00;;;15.20;99.90;;;;;;5052054;28;20189;-67
2023/06/30 02:45:29;;;;;;;11.88;2.17;;;15.20;99.90;;;;;;5052070;28;20268;-67
2023/06/30 02:47:55;;;;;;;7.22;2.10;;;15.20;99.90;;;;;;5051950;28;20192;-68
2023/06/30 02:50:31;;;;;;;8.85;1.73;;;15.20;99.90;;;;;;5040663;28;20299;-68
2023/06/30 02:52:58;;;;;;;7.10;1.90;;;15.20;99.90;;;;;;5048751;28;20181;-68
2023/06/30 02:55:24;;;;;;;11.02;1.95;;;15.20;99.90;;;;;;5044741;28;20169;-68
2023/06/30 02:57:50;;;;;;;5.50;1.60;;;15.20;99.90;;;;;;5045447;28;20212;-69
2023/06/30 03:00:16;;;;;;;4.63;1.60;;;15.30;99.90;;;;;;5050798;28;20688;-67
2023/06/30 03:02:41;;;;;;;7.70;1.95;;;15.30;99.90;;;;;;5033421;28;20227;-70
2023/06/30 03:05:08;;;;;;;6.75;1.50;;;15.20;99.90;;;;;;5051205;28;20169;-70
2023/06/30 03:07:33;;;;;;;10.30;1.60;;;15.20;99.90;;;;;;5030389;28;20649;-69
2023/06/30 03:09:59;;;;;;;13.77;1.98;;;15.10;99.90;;;;;;5031912;28;20251;-71
2023/06/30 03:12:25;;;;;;;7.57;1.92;;;15.10;99.90;;;;;;5044987;28;20253;-71
2023/06/30 03:14:51;;;;;;;6.80;2.10;;;15.10;99.90;;;;;;5038838;28;20608;-70
2023/06/30 03:17:16;;;;;;;9.57;2.17;;;15.10;99.90;;;;;;5051096;28;20192;-70
2023/06/30 03:19:42;;;;;;;8.10;2.47;;;15.20;99.90;;;;;;5050731;28;20216;-67
2023/06/30 03:22:07;;;;;;;9.50;2.13;;;15.20;99.90;;;;;;5051358;28;20252;-67
2023/06/30 03:24:33;;;;;;;12.13;2.08;;;15.10;99.90;;;;;;5050322;28;20592;-67
2023/06/30 03:26:59;;;;;;;7.30;2.10;;;15.10;99.90;;;;;;5050602;28;20169;-67
2023/06/30 03:29:24;;;;;;;9.75;1.90;;;15.10;99.90;;;;;;5050039;28;20221;-67
2023/06/30 03:31:50;;;;;;;8.60;2.03;;;;;;;;;;5047327;28;20184;-67
2023/06/30 03:34:16;;;;;;;11.30;2.20;;;15.10;99.90;;;;;;5040038;28;20186;-67
2023/06/30 03:36:41;;;;;;;10.27;2.13;;;15.10;99.90;;;;;;5050754;28;20539;-66
2023/06/30 03:39:07;;;;;;;9.10;1.92;;;15.00;99.90;;;;;;5050738;28;20169;-66
2023/06/30 03:41:33;;;;;;;10.07;1.80;;;15.00;99.90;;;;;;5032636;28;20263;-66
2023/06/30 03:43:58;;;;;;;9.27;1.73;;;15.00;99.90;;;;;;5049849;28;20273;-66
2023/06/30 03:46:24;;;;;;;4.53;1.42;;;15.00;99.90;;;;;;5051141;28;20244;-65
2023/06/30 03:48:50;;;;;;;5.35;1.80;;;15.00;99.90;;;;;;5050965;28;20655;-66
2023/06/30 03:51:15;;;;;;;8.50;1.70;;;15.00;99.90;;;;;;5051191;28;20226;-66
2023/06/30 03:53:42;;;;;;;12.15;2.50;;;15.00;99.90;;;;;;5051264;28;20197;-66
2023/06/30 03:56:08;;;;;;;10.70;2.20;;;15.00;99.90;;;;;;5051229;28;20177;-67
2023/06/30 03:58:33;;;;;;;10.32;1.98;;;15.00;99.90;;;;;;5050540;28;20165;-67
2023/06/30 04:00:59;;;;;;;14.32;2.47;;;15.00;99.90;;;;;;5051010;28;20239;-66
2023/06/30 04:03:25;;;;;;;5.57;1.50;;;15.00;99.90;;;;;;5050804;28;20161;-67
2023/06/30 04:05:51;;;;;;;13.05;2.10;;;14.90;99.90;;;;;;5050694;28;20224;-67
2023/06/30 04:08:16;;;;;;;8.65;2.03;;;14.90;99.90;;;;;;5050380;28;20655;-66
2023/06/30 04:10:43;;;;;;;13.18;2.08;;;14.90;99.90;;;;;;5050602;28;20215;-67
2023/06/30 04:13:09;;;;;;;5.38;1.50;;;14.90;99.90;;;;;;5050796;28;20161;-68
2023/06/30 04:15:35;;;;;;;8.75;1.90;;;15.00;99.90;;;;;;5050986;28;20238;-68
2023/06/30 04:18:00;;;;;;;16.08;1.80;;;15.00;99.90;;;;;;5051005;28;20173;-68
2023/06/30 04:20:26;;;;;;;10.38;1.90;;;15.10;99.90;;;;;;5050925;28;20613;-68
2023/06/30 04:22:52;;;;;;;7.93;1.70;;;15.10;99.90;;;;;;5050831;28;20640;-68
2023/06/30 04:25:17;;;;;;;8.60;1.80;;;15.10;99.90;;;;;;5050732;28;20179;-68
2023/06/30 04:27:43;;;;;;;7.93;1.70;;;15.00;99.90;;;;;;5050773;28;20588;-66
2023/06/30 04:30:09;;;;;;;11.43;2.17;;;15.00;99.90;;;;;;5050163;28;20247;-66
2023/06/30 04:32:35;;;;;;;6.15;1.38;;;15.10;99.90;;;;;;5050786;28;20181;-66
2023/06/30 04:35:01;;;;;;;11.85;1.90;;;15.00;99.90;;;;;;5050570;28;20280;-67
2023/06/30 04:37:29;;;;;;;4.70;1.58;;;15.00;99.90;;;;;;5050567;28;20176;-67
2023/06/30 04:39:59;;;;;;;8.45;1.95;;;15.10;99.90;;;;;;5050749;28;20184;-67
2023/06/30 04:42:29;;;;;;;4.30;1.38;;;15.10;99.90;;;;;;5050477;28;20172;-67
2023/06/30 04:44:54;;;;;;;8.65;1.80;;;15.10;99.90;;;;;;5049562;28;20640;-68
2023/06/30 04:47:20;;;;;;;6.43;1.38;;;15.10;99.90;;;;;;5042412;28;20204;-69
2023/06/30 04:49:46;;;;;;;13.27;2.38;;;15.20;99.90;;;;;;5041352;28;20575;-68
2023/06/30 04:52:12;;;;;;;9.93;1.52;;;15.20;99.90;;;;;;5049915;28;20251;-69
2023/06/30 04:54:37;;;;;;;10.82;2.25;;;15.10;99.90;;;;;;5039102;28;20185;-69
2023/06/30 04:57:05;;;;;;;5.82;1.70;;;15.20;99.90;;;;;;5050450;28;20188;-70
2023/06/30 04:59:31;;;;;;;8.15;1.45;;;15.10;99.90;;;;;;5032592;28;20212;-69
2023/06/30 05:01:56;;;;;;;11.88;2.15;;;15.10;99.90;;;;;;5050495;28;20212;-68
2023/06/30 05:04:22;;;;;;;4.82;1.33;;;15.10;99.90;;;;;;5050559;28;20169;-68
2023/06/30 05:06:48;;;;;;;11.02;1.67;;;15.10;99.90;;;;;;5050469;28;20169;-69
2023/06/30 05:09:13;;;;;;;13.43;1.83;;;15.10;99.90;;;;;;5032057;28;20240;-70
2023/06/30 05:11:39;;;;;;;5.00;1.42;;;15.10;99.90;;;;;;5049821;28;20170;-70
2023/06/30 05:14:04;;;;;;;8.93;1.63;;;15.10;99.90;;;;;;5050410;28;20173;-67
2023/06/30 05:16:30;;;;;;;9.85;1.60;;;15.20;99.90;;;;;;5050320;28;20169;-69
2023/06/30 05:18:56;;;;;;;7.35;1.95;;;15.20;99.90;;;;;;5050261;28;20816;-68
2023/06/30 05:21:21;;;;;;;14.63;2.10;;;15.20;99.90;;;;;;5050237;28;20177;-67
2023/06/30 05:23:47;;;;;;;11.73;2.05;;;15.20;99.90;;;;;;5050335;28;20172;-66
2023/06/30 05:26:12;;;;;;;9.98;1.90;;;15.20;99.90;;;;;;5051822;28;20252;-67
2023/06/30 05:28:38;;;;;;;7.03;1.60;;;15.30;99.90;;;;;;5053831;28;20284;-66
2023/06/30 05:31:04;;;;;;;7.47;1.85;;;15.20;99.90;;;;;;5053849;28;20644;-66
2023/06/30 05:33:30;;;;;;;6.20;1.67;;;15.30;99.90;;;;;;5053743;28;20639;-66
2023/06/30 05:35:55;;;;;;;9.20;2.30;;;15.30;99.90;;;;;;5053789;28;20176;-67
2023/06/30 05:38:21;;;;;;;10.65;1.77;;;15.30;99.90;;;;;;5053525;28;20264;-67
2023/06/30 05:40:47;;;;;;;10.77;1.88;;;15.30;99.90;;;;;;5053621;28;20166;-67
2023/06/30 05:43:12;;;;;;;9.82;2.05;;;15.30;99.90;;;;;;5053578;28;20173;-67
2023/06/30 05:45:39;;;;;;;9.32;1.88;;;15.30;99.90;;;;;;5053636;28;20504;-67
2023/06/30 05:48:04;;;;;;;15.85;2.22;;;15.30;99.90;;;;;;5038943;28;20178;-67
2023/06/30 05:50:30;;;;;;;10.15;2.20;;;15.40;99.90;;;;;;5033427;28;20305;-66
2023/06/30 05:52:56;;;;;;;8.88;1.73;;;15.40;99.90;;;;;;5033487;28;20181;-67
2023/06/30 05:55:21;;;;;;;10.15;1.85;;;15.30;99.90;;;;;;5034788;28;20671;-67
2023/06/30 05:57:47;;;;;;;4.18;1.35;;;15.30;99.90;;;;;;5053203;28;20216;-71
2023/06/30 06:00:14;;;;;;;9.50;2.03;;;15.20;99.90;;;;;;5053176;28;20185;-69
2023/06/30 06:02:40;;;;;;;4.68;1.50;;;15.30;99.90;;;;;;5050506;28;20268;-77
2023/06/30 06:05:06;;;;;;;13.93;2.05;;;15.30;99.90;;;;;;5053220;28;20648;-75
2023/06/30 06:07:32;;;;;;;11.48;2.17;;;15.40;99.90;;;;;;5043216;28;20569;-77
2023/06/30 06:09:57;;;;;;;9.13;1.92;;;15.50;99.90;;;;;;5053003;28;20219;-77
2023/06/30 06:12:23;;;;;;;10.65;1.92;;;15.50;99.90;;;;;;5052661;28;20567;-71
2023/06/30 06:14:48;;;;;;;6.38;1.67;;;15.40;99.90;;;;;;5053059;28;20188;-70
2023/06/30 06:17:14;;;;;;;13.20;2.78;;;15.50;99.90;;;;;;5044244;28;20173;-68
2023/06/30 06:19:40;;;;;;;11.90;2.00;;;15.60;99.90;;;;;;5052849;28;20181;-69
2023/06/30 06:22:05;;;;;;;10.40;2.05;;;16.00;99.90;;;;;;5053029;28;20219;-68
2023/06/30 06:24:32;;;;;;;8.07;1.70;;;15.70;99.90;;;;;;5052799;28;20180;-68
2023/06/30 06:26:57;;;;;;;11.35;2.10;;;15.60;99.90;;;;;;5052800;28;20197;-68
2023/06/30 06:29:23;;;;;;;7.75;1.90;;;15.70;99.90;;;;;;5049778;28;20679;-79
2023/06/30 06:31:50;;;;;;;8.85;2.03;;;15.70;99.90;;;;;;5062029;28;20646;-79
2023/06/30 06:34:19;;;;;;;16.70;1.77;;;15.60;99.90;;;;;;5053669;28;20731;-77
2023/06/30 06:36:45;;;;;;;7.57;1.92;;;15.50;99.90;;;;;;5052786;28;20624;-81
2023/06/30 06:39:11;;;;;;;8.30;1.63;;;15.50;99.90;;;;;;5051616;28;20177;-80
2023/06/30 06:41:37;;;;;;;8.55;1.55;;;15.30;99.90;;;;;;5046724;28;20663;-78
2023/06/30 06:44:06;;;;;;;11.30;1.90;;;15.20;99.90;;;;;;5032655;28;20182;-80
2023/06/30 06:46:32;;;;;;;12.77;1.95;;;15.10;99.90;;;;;;5015071;28;20174;-80
2023/06/30 06:48:58;;;;;;;8.90;2.05;;;15.00;99.90;;;;;;5034117;28;20193;-80
2023/06/30 06:51:27;;;;;;;9.18;2.00;;;15.00;99.90;;;;;;5052163;28;20177;-79
2023/06/30 06:53:53;;;;;;;10.07;1.90;;;15.00;99.90;;;;;;5052464;28;20222;-84
2023/06/30 06:56:19;;;;;;;12.07;2.35;;;15.10;99.90;;;;;;5052365;28;20173;-81
2023/06/30 06:58:45;;;;;;;9.98;2.45;;;15.10;99.90;;;;;;5052064;28;20177;-79
2023/06/30 07:01:11;;;;;;;8.65;2.08;;;15.10;99.90;;;;;;5052377;28;20268;-80
2023/06/30 07:03:37;;;;;;;12.82;2.65;;;15.20;99.90;;;;;;5051957;28;20184;-66
2023/06/30 07:06:03;;;;;;;8.80;2.10;;;15.10;99.90;;;;;;5051041;28;20584;-68
2023/06/30 07:08:34;;;;;;;8.88;2.20;;;15.10;99.90;;;;;;5051162;28;20183;-80
2023/06/30 07:11:00;;;;;;;13.70;2.03;;;15.20;99.90;;;;;;5052197;28;20199;-78
2023/06/30 07:13:26;;;;;;;15.75;2.13;;;15.30;99.90;;;;;;5051576;28;20181;-78
2023/06/30 07:15:51;;;;;;;8.65;2.13;;;15.30;99.90;;;;;;5051780;28;20172;-82
2023/06/30 07:18:17;;;;;;;12.55;2.40;;;15.40;99.90;;;;;;5052298;28;20179;-81
2023/06/30 07:20:47;;;;;;;11.38;2.38;;;15.50;99.90;;;;;;5052132;28;20174;-81
2023/06/30 07:23:13;;;;;;;9.05;2.05;;;15.50;99.90;;;;;;5034281;28;20188;-79
2023/06/30 07:25:39;;;;;;;16.33;2.92;;;15.50;99.90;;;;;;5033871;28;20374;-80
2023/06/30 07:28:05;;;;;;;8.80;2.10;;;15.60;99.90;;;;;;5051148;28;20242;-78
2023/06/30 07:30:30;;;;;;;14.48;2.17;;;15.50;99.90;;;;;;5051343;28;20252;-81
2023/06/30 07:32:56;;;;;;;11.02;2.25;;;15.60;99.90;;;;;;5051832;28;20173;-76
2023/06/30 07:35:23;;;;;;;14.50;2.70;;;15.60;99.90;;;;;;5051749;28;20170;-81
2023/06/30 07:37:49;;;;;;;7.00;1.67;;;15.70;99.90;;;;;;5051110;28;20173;-80
2023/06/30 07:40:17;;;;;;;13.38;2.28;;;15.70;99.90;;;;;;5033348;28;20666;-75
2023/06/30 07:42:43;;;;;;;14.70;2.38;;;15.90;99.90;;;;;;5050891;28;20161;-70
2023/06/30 07:45:11;;;;;;;10.35;1.98;;;15.90;99.90;;;;;;5051312;28;20201;-71
2023/06/30 07:47:37;;;;;;;14.35;2.97;;;15.80;99.90;;;;;;5032684;28;20262;-71
2023/06/30 07:50:09;;;;;;;8.93;2.15;;;15.90;99.90;;;;;;5050165;28;20205;-71
2023/06/30 07:52:35;;;;;;;12.20;2.10;;;14.20;99.90;;;;;;5051301;28;20268;-72
2023/06/30 07:55:01;;;;;;;10.10;2.25;;;15.90;99.90;;;;;;5041151;28;20635;-71
2023/06/30 07:57:26;;;;;;;11.70;2.35;;;15.90;99.90;;;;;;5041262;28;20166;-72
2023/06/30 07:59:52;;;;;;;10.82;2.50;;;16.00;99.90;;;;;;5013399;28;20567;-71
2023/06/30 08:02:18;;;;;;;12.95;2.50;;;16.00;99.90;;;;;;5012529;28;20632;-74
2023/06/30 08:04:43;;;;;;;14.98;2.35;;;16.00;99.90;;;;;;5038935;28;20169;-65
2023/06/30 08:07:09;;;;;;;11.07;1.90;;;16.00;99.90;;;;;;5046963;28;20181;-69
2023/06/30 08:09:35;;;;;;;13.68;2.42;;;16.50;99.90;;;;;;5050401;28;20201;-69
2023/06/30 08:12:00;;;;;;;7.57;1.83;;;16.00;99.90;;;;;;5050729;28;20173;-67
2023/06/30 08:14:26;;;;;;;14.13;2.35;;;16.10;99.90;;;;;;5050354;28;20211;-71
2023/06/30 08:16:52;;;;;;;18.17;2.83;;;16.10;99.90;;;;;;5050196;28;20192;-71
2023/06/30 08:19:18;;;;;;;15.48;2.53;;;16.20;99.90;;;;;;5050965;28;20177;-70
2023/06/30 08:21:43;;;;;;;17.25;2.03;;;16.40;99.90;;;;;;5050080;28;20196;-70
2023/06/30 08:24:09;;;;;;;12.35;2.30;;;16.30;99.90;;;;;;5039410;28;20177;-68
2023/06/30 08:26:35;;;;;;;13.52;2.10;;;16.30;99.90;;;;;;5050703;28;20658;-70
2023/06/30 08:29:00;;;;;;;11.65;2.10;;;16.40;99.90;;;;;;5050542;28;20220;-71
2023/06/30 08:31:26;;;;;;;14.27;2.70;;;;;;;;;;5050499;28;20200;-70
2023/06/30 08:33:52;;;;;;;6.38;1.70;;;16.60;99.90;;;;;;5048702;28;20690;-71
2023/06/30 08:36:17;;;;;;;12.52;2.65;;;16.60;99.90;;;;;;5049974;28;20176;-70
2023/06/30 08:38:43;;;;;;;6.15;1.58;;;16.80;99.90;;;;;;5050602;28;20170;-70
2023/06/30 08:41:09;;;;;;;12.05;2.20;;;16.70;99.90;;;;;;5050351;28;20204;-71
2023/06/30 08:43:38;;;;;;;10.98;2.35;;;16.80;99.90;;;;;;5039464;28;20651;-70
2023/06/30 08:46:05;;;;;;;14.18;2.50;;;16.80;99.90;;;;;;5050122;28;20231;-70
2023/06/30 08:48:31;;;;;;;8.35;1.33;;;16.90;99.90;;;;;;5034692;28;20204;-76
2023/06/30 08:50:58;;;;;;;13.70;2.22;;;16.90;99.90;;;;;;5043686;28;20216;-73
2023/06/30 08:53:26;;;;;;;10.05;2.15;;;16.80;99.90;;;;;;5028530;28;20614;-72
2023/06/30 08:55:54;;;;;;;12.50;2.05;;;16.80;99.90;;;;;;5029870;28;20182;-71
2023/06/30 08:58:20;;;;;;;11.52;1.95;;;17.10;99.90;;;;;;5034070;28;20198;-70
2023/06/30 09:00:45;;;;;;;9.23;2.17;;;17.20;99.90;;;;;;5051083;28;20216;-74
2023/06/30 09:03:11;;;;;;;8.85;1.88;;;17.30;99.90;;;;;;5046237;28;20178;-80
2023/06/30 09:05:40;;;;;;;12.07;2.03;;;17.40;99.90;;;;;;5040074;28;20750;-73
2023/06/30 09:08:28;;;;;;;8.77;1.98;;;17.50;99.90;;;;;;5054195;28;20200;-79
2023/06/30 09:10:54;;;;;;;5.47;1.80;;;17.60;99.90;;;;;;5054122;28;20391;-76
2023/06/30 09:13:23;;;;;;;6.43;1.77;;;17.80;99.90;;;;;;5058667;28;20202;-82
2023/06/30 09:15:49;;;;;;;6.78;1.75;;;17.70;99.90;;;;;;5050661;28;20169;-75
2023/06/30 09:18:15;;;;;;;5.38;1.00;;;17.70;99.90;;;;;;5053087;28;20179;-81
2023/06/30 09:20:40;;;;;;;10.35;2.40;;;17.50;99.90;;;;;;5055040;28;20181;-76
2023/06/30 09:23:07;;;;;;;7.10;1.85;;;17.80;99.90;;;;;;5036386;28;20662;-75
2023/06/30 09:25:33;;;;;;;10.07;2.08;;;17.90;99.90;;;;;;5053129;28;20169;-77
2023/06/30 09:27:58;;;;;;;9.00;2.05;;;18.00;99.90;;;;;;5053784;28;20235;-74
2023/06/30 09:30:45;;;;;;;7.30;1.80;;;18.10;99.90;;;;;;5053989;28;20225;-75
2023/06/30 09:33:17;;;;;;;8.43;2.15;;;18.20;99.90;;;;;;5037615;28;20644;-75
2023/06/30 09:35:44;;;;;;;7.60;2.08;;;18.20;99.90;;;;;;5053745;28;20211;-76
2023/06/30 09:38:13;;;;;;;11.55;2.60;;;18.00;99.90;;;;;;5053892;28;20180;-75
2023/06/30 09:40:57;;;;;;;5.43;1.52;;;17.80;99.90;;;;;;5035325;28;20180;-75
2023/06/30 09:43:25;;;;;;;7.20;2.30;;;17.50;99.90;;;;;;5015910;28;20184;-75
2023/06/30 09:46:00;;;;;;;8.02;1.90;;;17.60;99.90;;;;;;5033567;28;20204;-76
2023/06/30 09:48:31;;;;;;;6.53;2.10;;;17.60;99.90;;;;;;5035316;28;20174;-75
2023/06/30 09:50:57;;;;;;;9.13;2.25;;;17.70;99.90;;;;;;5033831;28;20218;-75
2023/06/30 09:53:22;;;;;;;10.85;2.00;;;17.80;99.90;;;;;;5049793;28;20238;-74
2023/06/30 09:55:50;;;;;;;2.63;1.30;;;17.80;99.90;;;;;;5034964;28;20711;-75
2023/06/30 09:58:18;;;;;;;5.20;1.67;;;17.80;99.90;;;;;;5039279;28;20254;-76
2023/06/30 10:00:44;;;;;;;4.65;1.70;;;17.80;99.90;;;;;;5033275;28;20180;-75
2023/06/30 10:03:09;;;;;;;5.70;1.88;;;17.90;99.90;;;;;;5038093;28;20173;-75
2023/06/30 10:05:38;;;;;;;5.20;1.92;;;18.00;99.90;;;;;;5053270;28;20173;-74
2023/06/30 10:08:05;;;;;;;10.05;1.83;;;18.00;99.90;;;;;;5053077;28;20227;-74
2023/06/30 10:10:31;;;;;;;5.35;2.08;;;18.10;99.90;;;;;;5052658;28;20225;-74
2023/06/30 10:12:58;;;;;;;3.80;1.65;;;18.40;99.90;;;;;;5052737;28;20201;-74
2023/06/30 10:15:25;;;;;;;5.38;1.10;;;18.60;99.90;;;;;;5052646;28;20169;-76
2023/06/30 10:17:56;;;;;;;6.57;1.50;;;18.50;99.90;;;;;;5050941;28;20566;-75
2023/06/30 10:20:22;;;;;;;5.55;1.45;;;18.50;99.90;;;;;;5051197;28;20219;-74
2023/06/30 10:22:48;;;;;;;8.45;1.95;;;18.40;99.90;;;;;;5051881;28;20173;-77
2023/06/30 10:25:16;;;;;;;4.93;1.50;;;18.30;99.90;;;;;;5052186;28;20252;-75
2023/06/30 10:27:44;;;;;;;7.25;1.38;;;18.30;99.90;;;;;;5052292;28;20200;-75
2023/06/30 10:30:12;;;;;;;6.45;1.45;;;18.50;99.90;;;;;;5052212;28;20309;-75
2023/06/30 10:32:39;;;;;;;3.40;1.25;;;18.70;99.90;;;;;;5052665;28;20247;-75
2023/06/30 10:35:06;;;;;;;5.53;1.45;;;19.40;99.90;;;;;;5052651;28;20173;-73
2023/06/30 10:37:33;;;;;;;4.40;1.25;;;19.40;99.90;;;;;;5052877;28;20256;-77
2023/06/30 10:39:58;;;;;;;3.75;1.13;;;19.40;99.90;;;;;;5034738;28;20169;-75
2023/06/30 10:42:27;;;;;;;5.50;1.17;;;19.40;99.90;;;;;;5052536;28;20215;-75
2023/06/30 10:44:59;;;;;;;6.43;1.20;;;19.40;99.90;;;;;;5052533;28;20223;-74
2023/06/30 10:47:27;;;;;;;5.90;1.30;;;19.20;99.90;;;;;;5052692;28;20185;-75
2023/06/30 10:49:54;;;;;;;1.02;0.57;;;19.10;99.90;;;;;;5052579;28;20213;-75
2023/06/30 10:52:31;;;;;;;3.47;1.05;;;18.70;99.90;;;;;;5052527;28;20247;-74
2023/06/30 10:55:05;;;;;;;3.78;0.90;;;18.70;99.90;;;;;;5052384;28;20248;-73
2023/06/30 10:57:36;;;;;;;1.23;0.75;;;18.60;99.90;;;;;;5052072;28;20720;-74
2023/06/30 11:00:10;;;;;;;2.45;0.85;;;18.60;99.90;;;;;;5052239;28;20177;-74
2023/06/30 11:02:56;;;;;;;2.17;0.90;;;18.70;99.90;;;;;;5052552;28;20172;-76
2023/06/30 11:05:29;;;;;;;2.33;0.90;;;18.60;99.90;;;;;;5052128;28;20211;-74
2023/06/30 11:08:01;;;;;;;4.82;1.10;;;18.60;99.90;;;;;;5052084;28;20527;-75
2023/06/30 11:10:32;;;;;;;3.42;0.80;;;18.60;99.90;;;;;;5051963;28;20216;-74
2023/06/30 11:13:08;;;;;;;1.58;0.80;;;18.60;99.90;;;;;;5038108;28;20173;-75
2023/06/30 11:15:43;;;;;;;4.60;0.90;;;18.50;99.90;;;;;;5031827;28;20169;-76
2023/06/30 11:18:19;;;;;;;4.22;0.80;;;18.60;99.90;;;;;;5041234;28;20172;-76
2023/06/30 11:20:57;;;;;;;3.50;0.90;;;18.90;99.90;;;;;;5051813;28;20177;-75
2023/06/30 11:23:24;;;;;;;2.55;0.85;;;19.30;99.90;;;;;;5051168;28;20699;-75
2023/06/30 11:25:50;;;;;;;1.90;0.80;;;19.40;99.90;;;;;;5051514;28;20181;-76
2023/06/30 11:28:16;;;;;;;2.15;0.82;;;19.40;99.90;;;;;;5033906;28;20234;-75
2023/06/30 11:30:41;;;;;;;8.85;1.25;;;19.40;99.90;;;;;;5039425;28;20228;-75
2023/06/30 11:33:07;;;;;;;3.45;1.20;;;19.50;99.90;;;;;;5031896;28;20636;-73
2023/06/30 11:35:36;;;;;;;5.90;1.00;;;19.40;99.90;;;;;;5031683;28;20644;-73
2023/06/30 11:38:02;;;;;;;3.28;0.95;;;19.30;99.90;;;;;;5031756;28;20253;-74
2023/06/30 11:40:28;;;;;;;2.00;0.80;;;19.30;99.90;;;;;;5031612;28;20257;-74
2023/06/30 11:42:54;;;;;;;4.07;0.77;;;19.40;99.90;;;;;;5031521;28;20662;-74
2023/06/30 11:45:20;;;;;;;2.33;0.80;;;19.60;99.90;;;;;;5031506;28;20174;-74
2023/06/30 11:47:49;;;;;;;3.90;0.82;;;19.50;99.90;;;;;;5031696;28;20178;-73
2023/06/30 11:50:15;;;;;;;1.92;0.80;;;19.60;99.90;;;;;;5031313;28;20198;-74
2023/06/30 11:52:41;;;;;;;3.08;0.85;;;19.80;99.90;;;;;;5031388;28;20165;-75
2023/06/30 11:55:08;;;;;;;5.43;0.88;;;20.10;99.90;;;;;;5013661;28;20702;-75
2023/06/30 11:57:39;;;;;;;1.83;0.88;;;19.80;99.90;;;;;;5035001;28;20181;-75
2023/06/30 12:00:22;;;;;;;3.28;1.00;;;19.80;99.90;;;;;;5032694;28;20249;-75
2023/06/30 12:02:48;;;;;;;1.55;0.70;;;19.60;99.90;;;;;;5031892;28;20181;-76
2023/06/30 12:05:25;;;;;;;4.38;0.80;;;19.40;99.90;;;;;;5031681;28;20365;-74
2023/06/30 12:07:52;;;;;;;1.95;0.70;;;19.30;99.90;;;;;;5031205;28;20261;-74
2023/06/30 12:10:18;;;;;;;1.90;0.90;;;19.30;99.90;;;;;;5031036;28;20217;-75
2023/06/30 12:12:53;;;;;;;3.08;0.80;;;19.20;99.90;;;;;;5031258;28;20174;-74
2023/06/30 12:15:18;;;;;;;2.22;0.98;;;19.40;99.90;;;;;;5031317;28;20184;-75
2023/06/30 12:17:44;;;;;;;3.47;0.88;;;19.50;99.90;;;;;;5031077;28;20174;-74
2023/06/30 12:20:11;;;;;;;3.95;1.42;;;19.80;99.90;;;;;;5031063;28;20173;-75
2023/06/30 12:22:42;;;;;;;4.55;0.90;;;20.00;99.90;;;;;;5013344;28;20549;-74
2023/06/30 12:25:13;;;;;;;1.20;0.77;;;19.70;99.90;;;;;;5031079;28;20248;-74
2023/06/30 12:27:43;;;;;;;4.03;0.85;;;20.00;99.90;;;;;;5031067;28;20256;-72
2023/06/30 12:30:18;;;;;;;2.63;0.85;;;20.00;99.90;;;;;;5034617;28;20221;-72
2023/06/30 12:32:44;;;;;;;2.63;0.60;;;19.80;99.90;;;;;;5048850;28;20183;-79
2023/06/30 12:35:11;;;;;;;1.23;0.55;;;19.60;99.90;;;;;;5032227;28;20185;-75
2023/06/30 12:37:37;;;;;;;1.15;0.60;;;19.00;99.90;;;;;;5054434;28;20165;-73
2023/06/30 12:40:05;;;;;;;0.65;0.50;;;18.80;99.90;;;;;;5044616;28;20191;-77
2023/06/30 12:42:31;;;;;;;4.72;0.95;;;18.70;99.90;;;;;;5034734;28;20304;-72